sensor_id;sensor_type;location;lat;lon;timestamp;P1;durP1;ratioP1;P2;durP2;ratioP2
4744;SDS011;2386;42.138;24.746;2023-08-12T00:01:04;16.83;;;5.17;;
4744;SDS011;2386;42.138;24.746;2023-08-12T00:03:30;20.23;;;5.77;;
4744;SDS011;2386;42.138;24.746;2023-08-12T00:05:56;9.97;;;3.90;;
4744;SDS011;2386;42.138;24.746;2023-08-12T00:08:25;10.90;;;4.10;;
4744;SDS011;2386;42.138;24.746;2023-08-12T00:10:51;8.00;;;3.73;;
4744;SDS011;2386;42.138;24.746;2023-08-12T00:13:16;16.93;;;4.70;;
4744;SDS011;2386;42.138;24.746;2023-08-12T00:15:42;19.97;;;4.97;;
4744;SDS011;2386;42.138;24.746;2023-08-12T00:18:08;13.27;;;4.87;;
4744;SDS011;2386;42.138;24.746;2023-08-12T00:20:34;11.03;;;4.60;;
4744;SDS011;2386;42.138;24.746;2023-08-12T00:22:59;14.83;;;5.13;;
4744;SDS011;2386;42.138;24.746;2023-08-12T00:25:25;11.67;;;4.50;;
4744;SDS011;2386;42.138;24.746;2023-08-12T00:27:50;11.97;;;4.80;;
4744;SDS011;2386;42.138;24.746;2023-08-12T00:30:15;13.83;;;4.40;;
4744;SDS011;2386;42.138;24.746;2023-08-12T00:32:41;9.03;;;4.13;;
4744;SDS011;2386;42.138;24.746;2023-08-12T00:38:28;7.87;;;3.97;;
4744;SDS011;2386;42.138;24.746;2023-08-12T00:40:54;8.30;;;4.37;;
4744;SDS011;2386;42.138;24.746;2023-08-12T00:43:19;14.20;;;4.57;;
4744;SDS011;2386;42.138;24.746;2023-08-12T00:45:44;8.63;;;4.47;;
4744;SDS011;2386;42.138;24.746;2023-08-12T00:48:10;13.37;;;4.60;;
4744;SDS011;2386;42.138;24.746;2023-08-12T00:50:36;19.23;;;5.60;;
4744;SDS011;2386;42.138;24.746;2023-08-12T00:53:02;12.27;;;4.37;;
4744;SDS011;2386;42.138;24.746;2023-08-12T00:55:31;14.13;;;4.40;;
4744;SDS011;2386;42.138;24.746;2023-08-12T00:57:57;15.50;;;5.37;;
4744;SDS011;2386;42.138;24.746;2023-08-12T01:00:22;16.83;;;4.80;;
4744;SDS011;2386;42.138;24.746;2023-08-12T01:02:49;7.90;;;3.87;;
4744;SDS011;2386;42.138;24.746;2023-08-12T01:05:16;7.20;;;3.63;;
4744;SDS011;2386;42.138;24.746;2023-08-12T01:07:42;8.20;;;3.97;;
4744;SDS011;2386;42.138;24.746;2023-08-12T01:10:08;9.10;;;4.10;;
4744;SDS011;2386;42.138;24.746;2023-08-12T01:13:03;7.63;;;4.20;;
4744;SDS011;2386;42.138;24.746;2023-08-12T01:18:33;9.73;;;4.60;;
4744;SDS011;2386;42.138;24.746;2023-08-12T01:20:58;7.50;;;3.87;;
4744;SDS011;2386;42.138;24.746;2023-08-12T01:23:24;6.40;;;4.00;;
4744;SDS011;2386;42.138;24.746;2023-08-12T01:25:49;7.20;;;3.93;;
4744;SDS011;2386;42.138;24.746;2023-08-12T01:28:15;13.93;;;4.57;;
4744;SDS011;2386;42.138;24.746;2023-08-12T01:30:51;17.53;;;5.13;;
4744;SDS011;2386;42.138;24.746;2023-08-12T01:33:46;12.13;;;4.30;;
4744;SDS011;2386;42.138;24.746;2023-08-12T01:36:18;15.67;;;5.13;;
4744;SDS011;2386;42.138;24.746;2023-08-12T01:38:45;12.63;;;4.90;;
4744;SDS011;2386;42.138;24.746;2023-08-12T01:41:12;8.97;;;4.13;;
4744;SDS011;2386;42.138;24.746;2023-08-12T01:43:42;20.97;;;4.60;;
4744;SDS011;2386;42.138;24.746;2023-08-12T01:46:08;14.33;;;4.90;;
4744;SDS011;2386;42.138;24.746;2023-08-12T01:48:34;14.43;;;5.33;;
4744;SDS011;2386;42.138;24.746;2023-08-12T01:50:59;11.90;;;5.07;;
4744;SDS011;2386;42.138;24.746;2023-08-12T01:53:25;14.40;;;5.00;;
4744;SDS011;2386;42.138;24.746;2023-08-12T01:55:51;16.23;;;5.37;;
4744;SDS011;2386;42.138;24.746;2023-08-12T01:58:17;11.73;;;4.07;;
4744;SDS011;2386;42.138;24.746;2023-08-12T02:00:42;14.73;;;5.47;;
4744;SDS011;2386;42.138;24.746;2023-08-12T02:03:08;19.80;;;5.40;;
4744;SDS011;2386;42.138;24.746;2023-08-12T02:12:16;13.10;;;4.97;;
4744;SDS011;2386;42.138;24.746;2023-08-12T02:14:42;15.63;;;5.10;;
4744;SDS011;2386;42.138;24.746;2023-08-12T02:17:07;8.70;;;4.20;;
4744;SDS011;2386;42.138;24.746;2023-08-12T02:19:33;13.90;;;4.87;;
4744;SDS011;2386;42.138;24.746;2023-08-12T02:21:59;11.70;;;4.67;;
4744;SDS011;2386;42.138;24.746;2023-08-12T02:24:25;19.20;;;5.20;;
4744;SDS011;2386;42.138;24.746;2023-08-12T02:26:50;12.47;;;4.60;;
4744;SDS011;2386;42.138;24.746;2023-08-12T02:29:16;7.33;;;4.20;;
4744;SDS011;2386;42.138;24.746;2023-08-12T02:31:41;9.87;;;4.40;;
4744;SDS011;2386;42.138;24.746;2023-08-12T02:34:06;13.77;;;4.87;;
4744;SDS011;2386;42.138;24.746;2023-08-12T02:36:32;13.73;;;5.00;;
4744;SDS011;2386;42.138;24.746;2023-08-12T02:38:57;13.17;;;4.90;;
4744;SDS011;2386;42.138;24.746;2023-08-12T02:41:23;10.57;;;4.80;;
4744;SDS011;2386;42.138;24.746;2023-08-12T02:43:48;10.13;;;4.47;;
4744;SDS011;2386;42.138;24.746;2023-08-12T02:46:13;5.60;;;3.87;;
4744;SDS011;2386;42.138;24.746;2023-08-12T02:48:40;8.07;;;4.33;;
4744;SDS011;2386;42.138;24.746;2023-08-12T02:51:06;13.60;;;5.00;;
4744;SDS011;2386;42.138;24.746;2023-08-12T02:53:31;19.30;;;5.13;;
4744;SDS011;2386;42.138;24.746;2023-08-12T02:55:57;6.10;;;3.87;;
4744;SDS011;2386;42.138;24.746;2023-08-12T02:58:22;15.20;;;4.20;;
4744;SDS011;2386;42.138;24.746;2023-08-12T03:00:48;13.97;;;5.47;;
4744;SDS011;2386;42.138;24.746;2023-08-12T03:03:13;14.10;;;5.27;;
4744;SDS011;2386;42.138;24.746;2023-08-12T03:05:38;8.73;;;4.47;;
4744;SDS011;2386;42.138;24.746;2023-08-12T03:08:04;13.47;;;4.43;;
4744;SDS011;2386;42.138;24.746;2023-08-12T03:10:30;12.20;;;4.20;;
4744;SDS011;2386;42.138;24.746;2023-08-12T03:12:55;9.57;;;4.50;;
4744;SDS011;2386;42.138;24.746;2023-08-12T03:15:21;13.27;;;5.23;;
4744;SDS011;2386;42.138;24.746;2023-08-12T03:17:47;14.73;;;5.13;;
4744;SDS011;2386;42.138;24.746;2023-08-12T03:20:12;12.37;;;5.03;;
4744;SDS011;2386;42.138;24.746;2023-08-12T03:22:37;9.37;;;4.50;;
4744;SDS011;2386;42.138;24.746;2023-08-12T03:25:03;11.27;;;4.67;;
4744;SDS011;2386;42.138;24.746;2023-08-12T03:27:29;16.10;;;4.70;;
4744;SDS011;2386;42.138;24.746;2023-08-12T03:29:55;20.10;;;6.13;;
4744;SDS011;2386;42.138;24.746;2023-08-12T03:32:20;16.00;;;5.17;;
4744;SDS011;2386;42.138;24.746;2023-08-12T03:34:46;9.97;;;4.83;;
4744;SDS011;2386;42.138;24.746;2023-08-12T03:37:11;12.30;;;4.83;;
4744;SDS011;2386;42.138;24.746;2023-08-12T03:39:36;7.40;;;4.27;;
4744;SDS011;2386;42.138;24.746;2023-08-12T03:45:23;7.80;;;4.20;;
4744;SDS011;2386;42.138;24.746;2023-08-12T03:47:49;14.60;;;4.63;;
4744;SDS011;2386;42.138;24.746;2023-08-12T03:50:14;10.13;;;4.53;;
4744;SDS011;2386;42.138;24.746;2023-08-12T03:52:40;17.33;;;5.07;;
4744;SDS011;2386;42.138;24.746;2023-08-12T03:55:05;9.80;;;4.57;;
4744;SDS011;2386;42.138;24.746;2023-08-12T03:57:31;12.50;;;4.97;;
4744;SDS011;2386;42.138;24.746;2023-08-12T03:59:57;11.17;;;4.90;;
4744;SDS011;2386;42.138;24.746;2023-08-12T04:02:22;14.33;;;5.37;;
4744;SDS011;2386;42.138;24.746;2023-08-12T04:04:47;11.57;;;4.97;;
4744;SDS011;2386;42.138;24.746;2023-08-12T04:07:13;14.03;;;5.40;;
4744;SDS011;2386;42.138;24.746;2023-08-12T04:09:38;19.53;;;6.10;;
4744;SDS011;2386;42.138;24.746;2023-08-12T04:12:03;22.23;;;6.37;;
4744;SDS011;2386;42.138;24.746;2023-08-12T04:14:29;12.70;;;4.93;;
4744;SDS011;2386;42.138;24.746;2023-08-12T04:17:00;17.67;;;4.83;;
4744;SDS011;2386;42.138;24.746;2023-08-12T04:19:25;8.07;;;4.43;;
4744;SDS011;2386;42.138;24.746;2023-08-12T04:25:12;10.80;;;4.30;;
4744;SDS011;2386;42.138;24.746;2023-08-12T04:27:38;17.63;;;5.20;;
4744;SDS011;2386;42.138;24.746;2023-08-12T04:30:03;6.70;;;4.27;;
4744;SDS011;2386;42.138;24.746;2023-08-12T04:32:29;12.57;;;4.93;;
4744;SDS011;2386;42.138;24.746;2023-08-12T04:34:55;11.87;;;5.03;;
4744;SDS011;2386;42.138;24.746;2023-08-12T04:37:20;13.77;;;4.60;;
4744;SDS011;2386;42.138;24.746;2023-08-12T04:39:46;10.80;;;5.10;;
4744;SDS011;2386;42.138;24.746;2023-08-12T04:42:12;10.40;;;4.80;;
4744;SDS011;2386;42.138;24.746;2023-08-12T04:44:37;16.83;;;5.80;;
4744;SDS011;2386;42.138;24.746;2023-08-12T04:47:03;10.90;;;4.70;;
4744;SDS011;2386;42.138;24.746;2023-08-12T04:49:28;8.23;;;4.13;;
4744;SDS011;2386;42.138;24.746;2023-08-12T04:51:54;11.33;;;5.60;;
4744;SDS011;2386;42.138;24.746;2023-08-12T04:54:19;13.33;;;5.10;;
4744;SDS011;2386;42.138;24.746;2023-08-12T04:56:44;7.23;;;4.60;;
4744;SDS011;2386;42.138;24.746;2023-08-12T04:59:11;14.83;;;5.10;;
4744;SDS011;2386;42.138;24.746;2023-08-12T05:01:36;17.30;;;5.50;;
4744;SDS011;2386;42.138;24.746;2023-08-12T05:04:02;10.00;;;4.43;;
4744;SDS011;2386;42.138;24.746;2023-08-12T05:06:27;9.30;;;5.10;;
4744;SDS011;2386;42.138;24.746;2023-08-12T05:08:53;16.13;;;6.27;;
4744;SDS011;2386;42.138;24.746;2023-08-12T05:11:18;20.17;;;6.60;;
4744;SDS011;2386;42.138;24.746;2023-08-12T05:13:43;30.40;;;7.67;;
4744;SDS011;2386;42.138;24.746;2023-08-12T05:16:09;11.43;;;5.33;;
4744;SDS011;2386;42.138;24.746;2023-08-12T05:18:34;23.73;;;5.80;;
4744;SDS011;2386;42.138;24.746;2023-08-12T05:20:59;11.13;;;5.17;;
4744;SDS011;2386;42.138;24.746;2023-08-12T05:23:25;24.57;;;5.77;;
4744;SDS011;2386;42.138;24.746;2023-08-12T05:25:50;10.40;;;5.10;;
4744;SDS011;2386;42.138;24.746;2023-08-12T05:28:16;11.50;;;5.43;;
4744;SDS011;2386;42.138;24.746;2023-08-12T05:30:41;10.07;;;4.73;;
4744;SDS011;2386;42.138;24.746;2023-08-12T05:33:06;19.50;;;6.30;;
4744;SDS011;2386;42.138;24.746;2023-08-12T05:35:32;17.53;;;6.03;;
4744;SDS011;2386;42.138;24.746;2023-08-12T05:37:59;16.40;;;5.50;;
4744;SDS011;2386;42.138;24.746;2023-08-12T05:40:24;22.60;;;7.10;;
4744;SDS011;2386;42.138;24.746;2023-08-12T05:42:49;16.87;;;6.67;;
4744;SDS011;2386;42.138;24.746;2023-08-12T05:45:15;11.37;;;4.80;;
4744;SDS011;2386;42.138;24.746;2023-08-12T05:47:40;17.13;;;5.87;;
4744;SDS011;2386;42.138;24.746;2023-08-12T05:50:06;7.80;;;5.13;;
4744;SDS011;2386;42.138;24.746;2023-08-12T05:52:32;15.97;;;5.40;;
4744;SDS011;2386;42.138;24.746;2023-08-12T05:54:58;12.63;;;5.57;;
4744;SDS011;2386;42.138;24.746;2023-08-12T05:57:23;12.77;;;5.40;;
4744;SDS011;2386;42.138;24.746;2023-08-12T05:59:48;21.13;;;5.63;;
4744;SDS011;2386;42.138;24.746;2023-08-12T06:02:14;17.10;;;6.80;;
4744;SDS011;2386;42.138;24.746;2023-08-12T06:04:39;28.73;;;6.50;;
4744;SDS011;2386;42.138;24.746;2023-08-12T06:07:05;38.77;;;8.30;;
4744;SDS011;2386;42.138;24.746;2023-08-12T06:09:30;19.97;;;6.47;;
4744;SDS011;2386;42.138;24.746;2023-08-12T06:11:55;28.77;;;7.27;;
4744;SDS011;2386;42.138;24.746;2023-08-12T06:14:21;14.03;;;5.67;;
4744;SDS011;2386;42.138;24.746;2023-08-12T06:16:46;17.80;;;6.00;;
4744;SDS011;2386;42.138;24.746;2023-08-12T06:19:12;32.73;;;6.27;;
4744;SDS011;2386;42.138;24.746;2023-08-12T06:21:40;28.30;;;6.27;;
4744;SDS011;2386;42.138;24.746;2023-08-12T06:24:06;17.40;;;6.10;;
4744;SDS011;2386;42.138;24.746;2023-08-12T06:26:31;13.20;;;5.53;;
4744;SDS011;2386;42.138;24.746;2023-08-12T06:28:57;30.40;;;6.77;;
4744;SDS011;2386;42.138;24.746;2023-08-12T06:31:22;23.47;;;6.30;;
4744;SDS011;2386;42.138;24.746;2023-08-12T06:33:48;18.00;;;5.83;;
4744;SDS011;2386;42.138;24.746;2023-08-12T06:36:13;26.83;;;6.83;;
4744;SDS011;2386;42.138;24.746;2023-08-12T06:38:39;36.00;;;5.17;;
4744;SDS011;2386;42.138;24.746;2023-08-12T06:41:04;13.13;;;4.97;;
4744;SDS011;2386;42.138;24.746;2023-08-12T06:43:30;27.33;;;6.47;;
4744;SDS011;2386;42.138;24.746;2023-08-12T06:45:55;9.57;;;5.33;;
4744;SDS011;2386;42.138;24.746;2023-08-12T06:48:21;20.30;;;5.47;;
4744;SDS011;2386;42.138;24.746;2023-08-12T06:50:52;11.53;;;5.43;;
4744;SDS011;2386;42.138;24.746;2023-08-12T06:53:18;9.03;;;4.80;;
4744;SDS011;2386;42.138;24.746;2023-08-12T06:55:44;13.73;;;5.40;;
4744;SDS011;2386;42.138;24.746;2023-08-12T06:58:10;24.20;;;7.30;;
4744;SDS011;2386;42.138;24.746;2023-08-12T07:00:36;33.50;;;13.70;;
4744;SDS011;2386;42.138;24.746;2023-08-12T07:03:01;24.93;;;7.27;;
4744;SDS011;2386;42.138;24.746;2023-08-12T07:05:26;17.47;;;5.37;;
4744;SDS011;2386;42.138;24.746;2023-08-12T07:07:52;11.33;;;4.93;;
4744;SDS011;2386;42.138;24.746;2023-08-12T07:10:18;14.70;;;5.60;;
4744;SDS011;2386;42.138;24.746;2023-08-12T07:12:43;13.10;;;5.23;;
4744;SDS011;2386;42.138;24.746;2023-08-12T07:18:30;17.67;;;5.10;;
4744;SDS011;2386;42.138;24.746;2023-08-12T07:20:56;13.83;;;6.10;;
4744;SDS011;2386;42.138;24.746;2023-08-12T07:23:23;23.63;;;5.80;;
4744;SDS011;2386;42.138;24.746;2023-08-12T07:25:49;24.20;;;6.00;;
4744;SDS011;2386;42.138;24.746;2023-08-12T07:28:15;11.23;;;4.90;;
4744;SDS011;2386;42.138;24.746;2023-08-12T07:30:40;12.83;;;4.50;;
4744;SDS011;2386;42.138;24.746;2023-08-12T07:33:07;15.63;;;5.47;;
4744;SDS011;2386;42.138;24.746;2023-08-12T07:35:32;9.53;;;4.77;;
4744;SDS011;2386;42.138;24.746;2023-08-12T07:37:58;13.43;;;5.33;;
4744;SDS011;2386;42.138;24.746;2023-08-12T07:40:24;19.63;;;5.97;;
4744;SDS011;2386;42.138;24.746;2023-08-12T07:42:49;11.73;;;4.90;;
4744;SDS011;2386;42.138;24.746;2023-08-12T07:45:15;9.97;;;4.97;;
4744;SDS011;2386;42.138;24.746;2023-08-12T07:47:40;9.80;;;4.07;;
4744;SDS011;2386;42.138;24.746;2023-08-12T07:50:06;21.97;;;6.37;;
4744;SDS011;2386;42.138;24.746;2023-08-12T07:52:32;33.60;;;7.80;;
4744;SDS011;2386;42.138;24.746;2023-08-12T07:54:57;21.90;;;6.73;;
4744;SDS011;2386;42.138;24.746;2023-08-12T07:57:22;9.87;;;4.57;;
4744;SDS011;2386;42.138;24.746;2023-08-12T07:59:49;14.27;;;4.57;;
4744;SDS011;2386;42.138;24.746;2023-08-12T08:02:15;22.53;;;5.83;;
4744;SDS011;2386;42.138;24.746;2023-08-12T08:04:41;14.50;;;5.03;;
4744;SDS011;2386;42.138;24.746;2023-08-12T08:07:06;13.43;;;5.43;;
4744;SDS011;2386;42.138;24.746;2023-08-12T08:09:32;16.67;;;5.00;;
4744;SDS011;2386;42.138;24.746;2023-08-12T08:11:58;36.20;;;7.50;;
4744;SDS011;2386;42.138;24.746;2023-08-12T08:14:25;20.00;;;6.73;;
4744;SDS011;2386;42.138;24.746;2023-08-12T08:16:50;33.63;;;8.83;;
4744;SDS011;2386;42.138;24.746;2023-08-12T08:19:16;18.00;;;5.50;;
4744;SDS011;2386;42.138;24.746;2023-08-12T08:24:12;30.00;;;7.50;;
4744;SDS011;2386;42.138;24.746;2023-08-12T08:26:38;21.93;;;5.80;;
4744;SDS011;2386;42.138;24.746;2023-08-12T08:29:05;25.73;;;6.57;;
4744;SDS011;2386;42.138;24.746;2023-08-12T08:31:31;27.00;;;7.43;;
4744;SDS011;2386;42.138;24.746;2023-08-12T08:33:56;17.53;;;5.70;;
4744;SDS011;2386;42.138;24.746;2023-08-12T08:36:22;22.73;;;5.97;;
4744;SDS011;2386;42.138;24.746;2023-08-12T08:38:48;22.87;;;6.73;;
4744;SDS011;2386;42.138;24.746;2023-08-12T08:41:13;23.93;;;6.70;;
4744;SDS011;2386;42.138;24.746;2023-08-12T08:43:41;19.43;;;5.60;;
4744;SDS011;2386;42.138;24.746;2023-08-12T08:46:10;13.67;;;5.10;;
4744;SDS011;2386;42.138;24.746;2023-08-12T08:48:38;20.60;;;6.33;;
4744;SDS011;2386;42.138;24.746;2023-08-12T08:51:04;21.93;;;6.00;;
4744;SDS011;2386;42.138;24.746;2023-08-12T08:53:30;11.60;;;4.70;;
4744;SDS011;2386;42.138;24.746;2023-08-12T08:55:55;15.60;;;5.57;;
4744;SDS011;2386;42.138;24.746;2023-08-12T08:58:22;11.60;;;4.70;;
4744;SDS011;2386;42.138;24.746;2023-08-12T09:00:48;15.77;;;5.73;;
4744;SDS011;2386;42.138;24.746;2023-08-12T09:03:14;23.33;;;6.17;;
4744;SDS011;2386;42.138;24.746;2023-08-12T09:05:40;20.40;;;6.33;;
4744;SDS011;2386;42.138;24.746;2023-08-12T09:08:07;22.20;;;5.97;;
4744;SDS011;2386;42.138;24.746;2023-08-12T09:10:36;14.03;;;4.70;;
4744;SDS011;2386;42.138;24.746;2023-08-12T09:13:05;11.90;;;4.50;;
4744;SDS011;2386;42.138;24.746;2023-08-12T09:15:34;19.43;;;7.33;;
4744;SDS011;2386;42.138;24.746;2023-08-12T09:17:59;21.60;;;9.30;;
4744;SDS011;2386;42.138;24.746;2023-08-12T09:20:25;18.30;;;5.27;;
4744;SDS011;2386;42.138;24.746;2023-08-12T09:22:57;14.00;;;5.63;;
4744;SDS011;2386;42.138;24.746;2023-08-12T09:25:24;24.73;;;8.10;;
4744;SDS011;2386;42.138;24.746;2023-08-12T09:27:54;30.23;;;9.47;;
4744;SDS011;2386;42.138;24.746;2023-08-12T09:30:20;14.30;;;5.53;;
4744;SDS011;2386;42.138;24.746;2023-08-12T10:13:28;23.00;;;6.57;;
4744;SDS011;2386;42.138;24.746;2023-08-12T10:15:54;21.07;;;6.43;;
4744;SDS011;2386;42.138;24.746;2023-08-12T10:18:20;17.17;;;5.20;;
4744;SDS011;2386;42.138;24.746;2023-08-12T10:20:47;24.93;;;7.57;;
4744;SDS011;2386;42.138;24.746;2023-08-12T10:23:16;24.63;;;7.30;;
4744;SDS011;2386;42.138;24.746;2023-08-12T10:25:45;33.40;;;13.00;;
4744;SDS011;2386;42.138;24.746;2023-08-12T10:28:14;26.10;;;12.60;;
4744;SDS011;2386;42.138;24.746;2023-08-12T10:30:44;28.93;;;11.10;;
4744;SDS011;2386;42.138;24.746;2023-08-12T10:33:10;23.33;;;7.53;;
4744;SDS011;2386;42.138;24.746;2023-08-12T10:38:07;21.27;;;7.00;;
4744;SDS011;2386;42.138;24.746;2023-08-12T10:40:33;30.50;;;7.90;;
4744;SDS011;2386;42.138;24.746;2023-08-12T10:42:59;15.30;;;5.23;;
4744;SDS011;2386;42.138;24.746;2023-08-12T10:45:24;11.10;;;5.03;;
4744;SDS011;2386;42.138;24.746;2023-08-12T10:48:22;18.73;;;6.23;;
4744;SDS011;2386;42.138;24.746;2023-08-12T10:50:51;7.30;;;4.40;;
4744;SDS011;2386;42.138;24.746;2023-08-12T10:53:24;20.00;;;13.70;;
4744;SDS011;2386;42.138;24.746;2023-08-12T10:55:58;9.83;;;5.10;;
4744;SDS011;2386;42.138;24.746;2023-08-12T10:58:46;23.90;;;16.53;;
4744;SDS011;2386;42.138;24.746;2023-08-12T11:01:21;22.83;;;10.20;;
4744;SDS011;2386;42.138;24.746;2023-08-12T11:03:48;15.40;;;6.27;;
4744;SDS011;2386;42.138;24.746;2023-08-12T11:06:14;36.00;;;7.30;;
4744;SDS011;2386;42.138;24.746;2023-08-12T11:08:52;17.20;;;6.63;;
4744;SDS011;2386;42.138;24.746;2023-08-12T11:11:23;9.83;;;6.07;;
4744;SDS011;2386;42.138;24.746;2023-08-12T11:13:58;21.77;;;8.30;;
4744;SDS011;2386;42.138;24.746;2023-08-12T11:16:36;18.53;;;8.10;;
4744;SDS011;2386;42.138;24.746;2023-08-12T11:19:03;22.70;;;10.30;;
4744;SDS011;2386;42.138;24.746;2023-08-12T11:21:29;17.83;;;7.43;;
4744;SDS011;2386;42.138;24.746;2023-08-12T11:23:54;17.93;;;7.63;;
4744;SDS011;2386;42.138;24.746;2023-08-12T11:26:21;23.53;;;7.53;;
4744;SDS011;2386;42.138;24.746;2023-08-12T11:28:49;12.83;;;5.87;;
4744;SDS011;2386;42.138;24.746;2023-08-12T11:31:15;25.67;;;8.53;;
4744;SDS011;2386;42.138;24.746;2023-08-12T11:33:40;24.73;;;8.80;;
4744;SDS011;2386;42.138;24.746;2023-08-12T11:36:06;31.80;;;8.57;;
4744;SDS011;2386;42.138;24.746;2023-08-12T11:38:32;18.90;;;10.63;;
4744;SDS011;2386;42.138;24.746;2023-08-12T11:41:00;14.13;;;9.80;;
4744;SDS011;2386;42.138;24.746;2023-08-12T11:43:26;11.50;;;7.03;;
4744;SDS011;2386;42.138;24.746;2023-08-12T11:45:51;17.87;;;8.40;;
4744;SDS011;2386;42.138;24.746;2023-08-12T11:48:16;14.63;;;8.07;;
4744;SDS011;2386;42.138;24.746;2023-08-12T11:50:42;18.70;;;8.50;;
4744;SDS011;2386;42.138;24.746;2023-08-12T11:53:10;25.60;;;11.23;;
4744;SDS011;2386;42.138;24.746;2023-08-12T11:55:36;20.67;;;10.77;;
4744;SDS011;2386;42.138;24.746;2023-08-12T11:58:01;11.80;;;7.57;;
4744;SDS011;2386;42.138;24.746;2023-08-12T12:00:30;37.93;;;24.43;;
4744;SDS011;2386;42.138;24.746;2023-08-12T12:03:13;28.73;;;18.73;;
4744;SDS011;2386;42.138;24.746;2023-08-12T12:05:38;20.90;;;11.70;;
4744;SDS011;2386;42.138;24.746;2023-08-12T12:08:04;13.90;;;12.13;;
4744;SDS011;2386;42.138;24.746;2023-08-12T12:10:32;14.43;;;9.30;;
4744;SDS011;2386;42.138;24.746;2023-08-12T12:12:58;17.40;;;11.03;;
4744;SDS011;2386;42.138;24.746;2023-08-12T12:15:25;15.23;;;12.20;;
4744;SDS011;2386;42.138;24.746;2023-08-12T12:17:50;23.90;;;21.33;;
4744;SDS011;2386;42.138;24.746;2023-08-12T12:20:16;25.93;;;23.37;;
4744;SDS011;2386;42.138;24.746;2023-08-12T12:22:43;41.27;;;37.90;;
4744;SDS011;2386;42.138;24.746;2023-08-12T12:25:10;47.90;;;43.93;;
4744;SDS011;2386;42.138;24.746;2023-08-12T12:27:38;32.47;;;29.47;;
4744;SDS011;2386;42.138;24.746;2023-08-12T12:30:05;19.73;;;18.03;;
4744;SDS011;2386;42.138;24.746;2023-08-12T12:32:34;23.37;;;21.30;;
4744;SDS011;2386;42.138;24.746;2023-08-12T12:35:00;19.17;;;17.63;;
4744;SDS011;2386;42.138;24.746;2023-08-12T12:37:25;21.97;;;18.53;;
4744;SDS011;2386;42.138;24.746;2023-08-12T12:39:51;16.00;;;14.60;;
4744;SDS011;2386;42.138;24.746;2023-08-12T12:42:16;14.40;;;10.77;;
4744;SDS011;2386;42.138;24.746;2023-08-12T12:44:43;12.07;;;7.60;;
4744;SDS011;2386;42.138;24.746;2023-08-12T12:47:08;20.50;;;7.90;;
4744;SDS011;2386;42.138;24.746;2023-08-12T12:49:35;13.40;;;7.40;;
4744;SDS011;2386;42.138;24.746;2023-08-12T12:52:01;6.33;;;3.70;;
4744;SDS011;2386;42.138;24.746;2023-08-12T12:54:26;15.17;;;5.23;;
4744;SDS011;2386;42.138;24.746;2023-08-12T12:56:52;11.90;;;4.93;;
4744;SDS011;2386;42.138;24.746;2023-08-12T12:59:17;11.20;;;5.70;;
4744;SDS011;2386;42.138;24.746;2023-08-12T13:01:43;20.60;;;7.00;;
4744;SDS011;2386;42.138;24.746;2023-08-12T13:04:08;24.80;;;7.30;;
4744;SDS011;2386;42.138;24.746;2023-08-12T13:06:34;19.13;;;5.83;;
4744;SDS011;2386;42.138;24.746;2023-08-12T13:09:00;12.03;;;4.77;;
4744;SDS011;2386;42.138;24.746;2023-08-12T13:11:26;26.93;;;8.27;;
4744;SDS011;2386;42.138;24.746;2023-08-12T13:13:53;20.37;;;7.43;;
4744;SDS011;2386;42.138;24.746;2023-08-12T13:16:19;16.47;;;6.43;;
4744;SDS011;2386;42.138;24.746;2023-08-12T13:18:44;14.20;;;5.63;;
4744;SDS011;2386;42.138;24.746;2023-08-12T13:21:10;25.03;;;7.23;;
4744;SDS011;2386;42.138;24.746;2023-08-12T13:23:35;16.93;;;5.67;;
4744;SDS011;2386;42.138;24.746;2023-08-12T13:26:01;17.60;;;5.50;;
4744;SDS011;2386;42.138;24.746;2023-08-12T13:28:26;11.60;;;5.23;;
4744;SDS011;2386;42.138;24.746;2023-08-12T13:30:52;22.30;;;7.20;;
4744;SDS011;2386;42.138;24.746;2023-08-12T13:33:18;8.33;;;4.30;;
4744;SDS011;2386;42.138;24.746;2023-08-12T13:35:44;12.20;;;4.93;;
4744;SDS011;2386;42.138;24.746;2023-08-12T13:38:09;11.33;;;4.80;;
4744;SDS011;2386;42.138;24.746;2023-08-12T13:40:35;14.63;;;6.60;;
4744;SDS011;2386;42.138;24.746;2023-08-12T13:43:01;18.43;;;5.73;;
4744;SDS011;2386;42.138;24.746;2023-08-12T13:45:29;19.40;;;6.60;;
4744;SDS011;2386;42.138;24.746;2023-08-12T13:47:58;17.87;;;6.03;;
4744;SDS011;2386;42.138;24.746;2023-08-12T13:50:23;19.20;;;8.33;;
4744;SDS011;2386;42.138;24.746;2023-08-12T13:52:49;13.53;;;7.70;;
4744;SDS011;2386;42.138;24.746;2023-08-12T13:55:17;15.03;;;8.07;;
4744;SDS011;2386;42.138;24.746;2023-08-12T13:57:50;19.47;;;7.50;;
4744;SDS011;2386;42.138;24.746;2023-08-12T14:00:21;12.63;;;5.70;;
4744;SDS011;2386;42.138;24.746;2023-08-12T14:02:47;14.20;;;9.93;;
4744;SDS011;2386;42.138;24.746;2023-08-12T14:05:13;11.97;;;9.00;;
4744;SDS011;2386;42.138;24.746;2023-08-12T14:07:42;8.80;;;7.40;;
4744;SDS011;2386;42.138;24.746;2023-08-12T14:10:15;12.50;;;7.30;;
4744;SDS011;2386;42.138;24.746;2023-08-12T14:12:41;23.90;;;8.67;;
4744;SDS011;2386;42.138;24.746;2023-08-12T14:15:06;16.93;;;6.90;;
4744;SDS011;2386;42.138;24.746;2023-08-12T14:17:32;12.00;;;7.83;;
4744;SDS011;2386;42.138;24.746;2023-08-12T14:20:15;24.03;;;10.13;;
4744;SDS011;2386;42.138;24.746;2023-08-12T14:22:45;6.90;;;5.93;;
4744;SDS011;2386;42.138;24.746;2023-08-12T14:25:11;10.67;;;8.50;;
4744;SDS011;2386;42.138;24.746;2023-08-12T14:27:36;13.00;;;7.77;;
4744;SDS011;2386;42.138;24.746;2023-08-12T14:30:05;15.13;;;9.73;;
4744;SDS011;2386;42.138;24.746;2023-08-12T14:32:34;11.43;;;7.00;;
4744;SDS011;2386;42.138;24.746;2023-08-12T14:34:59;10.70;;;7.40;;
4744;SDS011;2386;42.138;24.746;2023-08-12T14:37:25;31.37;;;11.73;;
4744;SDS011;2386;42.138;24.746;2023-08-12T14:39:52;28.30;;;12.40;;
4744;SDS011;2386;42.138;24.746;2023-08-12T14:42:18;16.63;;;11.73;;
4744;SDS011;2386;42.138;24.746;2023-08-12T14:44:43;12.93;;;10.90;;
4744;SDS011;2386;42.138;24.746;2023-08-12T14:47:09;21.57;;;13.40;;
4744;SDS011;2386;42.138;24.746;2023-08-12T14:49:35;23.67;;;13.53;;
4744;SDS011;2386;42.138;24.746;2023-08-12T14:55:22;24.20;;;14.80;;
4744;SDS011;2386;42.138;24.746;2023-08-12T14:57:47;20.13;;;10.33;;
4744;SDS011;2386;42.138;24.746;2023-08-12T15:00:13;19.17;;;10.73;;
4744;SDS011;2386;42.138;24.746;2023-08-12T15:02:39;9.43;;;8.50;;
4744;SDS011;2386;42.138;24.746;2023-08-12T15:05:05;9.93;;;6.53;;
4744;SDS011;2386;42.138;24.746;2023-08-12T15:07:31;20.67;;;7.13;;
4744;SDS011;2386;42.138;24.746;2023-08-12T15:09:59;19.50;;;8.37;;
4744;SDS011;2386;42.138;24.746;2023-08-12T15:12:25;6.80;;;5.23;;
4744;SDS011;2386;42.138;24.746;2023-08-12T15:14:53;17.30;;;8.40;;
4744;SDS011;2386;42.138;24.746;2023-08-12T15:17:18;10.53;;;6.00;;
4744;SDS011;2386;42.138;24.746;2023-08-12T15:19:44;10.40;;;6.93;;
4744;SDS011;2386;42.138;24.746;2023-08-12T15:22:09;8.13;;;5.33;;
4744;SDS011;2386;42.138;24.746;2023-08-12T15:24:37;18.07;;;6.70;;
4744;SDS011;2386;42.138;24.746;2023-08-12T15:27:05;23.47;;;7.23;;
4744;SDS011;2386;42.138;24.746;2023-08-12T15:29:31;12.93;;;4.93;;
4744;SDS011;2386;42.138;24.746;2023-08-12T15:32:04;9.20;;;4.93;;
4744;SDS011;2386;42.138;24.746;2023-08-12T15:34:30;8.70;;;5.23;;
4744;SDS011;2386;42.138;24.746;2023-08-12T15:40:17;22.03;;;7.33;;
4744;SDS011;2386;42.138;24.746;2023-08-12T15:42:45;12.10;;;6.10;;
4744;SDS011;2386;42.138;24.746;2023-08-12T15:45:11;22.43;;;7.13;;
4744;SDS011;2386;42.138;24.746;2023-08-12T15:47:38;8.53;;;4.30;;
4744;SDS011;2386;42.138;24.746;2023-08-12T15:50:05;6.20;;;4.27;;
4744;SDS011;2386;42.138;24.746;2023-08-12T15:52:32;8.83;;;4.43;;
4744;SDS011;2386;42.138;24.746;2023-08-12T15:55:00;10.43;;;4.90;;
4744;SDS011;2386;42.138;24.746;2023-08-12T15:57:26;7.10;;;4.30;;
4744;SDS011;2386;42.138;24.746;2023-08-12T15:59:51;7.20;;;4.60;;